Airfield :
LOGIN :

Register | Disclaimer

   EN    FR    IT 

 










Legend :    VFR   Marginal VFR   IFR   Intensive IFR   Very Intensive IFR
Visi :
Ceiling :
>= 8 km
>= 3000ft
5 to 8 km
1000 to 3000 ft
1500m to 5 km
500 to 1000 ft
800 to 1500m
200 to 500 ft
< 800m
< 200 ft
Symbols :   Thunderstorms  Fog  Heavy snow  Heavy precipitations  Wind > 20 kt
SIGMETs :     Misc.  Thunderstorms  Icing  Turbulence  Mountain Waves  Volcanic Ashes






- Airport Elevation : 170 ft
- IATA code : BGO


ENBR - Bergen , Flesland

CURRENT METAR :
  • 221950Z 08005KT 9999 -RA FEW020 BKN050 07/02 Q1009 NOSIG RMK WIND 1200FT 09009KT

EXPIRED METARs :
  • 221920Z 05004KT 9999 -RA FEW020 SCT032 BKN050 06/03 Q1009 NOSIG RMK WIND 1200FT 08010KT
  • 221850Z 05005KT 9999 -RA FEW020 SCT035 BKN050 06/03 Q1009 NOSIG RMK WIND 1200FT 08009KT
  • 221820Z 08006KT 9999 -RA FEW018 SCT025 BKN035 07/03 Q1009 NOSIG RMK WIND 1200FT 10008KT
  • 221750Z 08006KT 9999 -RA FEW018 SCT025 BKN050 07/03 Q1009 NOSIG RMK WIND 1200FT 10008KT
  • 221720Z 09004KT 9999 -RA FEW018 SCT030 BKN050 07/03 Q1009 NOSIG RMK WIND 1200FT 10009KT

TAF TAF ENBR
Valid from the 22 at 18:00 until the 23 at 18:00 UTC


2218/2318 VRB05KT 9999 -RA SCT020 BKN040



MET'MAP, your aeronautical weather chart ! - Copyright ORBIFLY December 2007 - Disclaimer

ORBIFLY MET'MAP TEAM :

Programming & Development : Alexandra Zaïnal
Concept & Development : Baudouin d'Aumeries
Co-Development & Prog : Marc-Olivier Méhu
Technical & hardware support : Manuel Goepfert

Contact : metmap@orbifly.com




SOURCES & CREDITS :

   NOAA